Time;durP1;ratioP1;P1;durP2;ratioP2;P2;SDS_P1;SDS_P2;PMS_P1;PMS_P2;Temp;Humidity;BMP_temperature;BMP_pressure;BME280_temperature;BME280_humidity;BME280_pressure;Samples;Min_cycle;Max_cycle;Signal;HPM_P1;HPM_P2
2023/10/20 00:04:10;;;;;;;;;;;13.80;99.90;;;;;;21213123;27;19967;-81
2023/10/20 00:14:10;;;;;;;;;;;13.80;99.90;;;;;;21225368;27;20017;-83
2023/10/20 00:24:12;;;;;;;;;;;13.80;99.90;;;;;;21235362;27;19923;-82
2023/10/20 00:34:13;;;;;;;;;;;13.70;99.90;;;;;;21227968;27;19970;-83
2023/10/20 00:44:14;;;;;;;;;;;13.80;99.90;;;;;;21224596;27;20286;-83
2023/10/20 00:54:15;;;;;;;;;;;13.70;99.90;;;;;;21222013;27;20007;-82
2023/10/20 01:04:15;;;;;;;;;;;13.60;99.90;;;;;;21217071;27;20373;-82
2023/10/20 01:14:16;;;;;;;;;;;13.60;99.90;;;;;;21230306;27;19983;-83
2023/10/20 01:24:17;;;;;;;;;;;13.60;99.90;;;;;;21211139;27;20309;-82
2023/10/20 01:34:17;;;;;;;;;;;13.60;99.90;;;;;;21220663;27;19923;-82
2023/10/20 01:44:18;;;;;;;;;;;13.60;99.90;;;;;;21183835;27;20002;-82
2023/10/20 01:54:18;;;;;;;;;;;13.60;99.90;;;;;;21182741;27;20271;-82
2023/10/20 02:04:19;;;;;;;;;;;13.60;99.90;;;;;;21202722;27;19922;-82
2023/10/20 02:14:20;;;;;;;;;;;13.50;99.90;;;;;;21213952;27;20428;-83
2023/10/20 02:24:20;;;;;;;;;;;13.40;99.90;;;;;;21204236;27;19923;-83
2023/10/20 02:34:22;;;;;;;;;;;13.40;99.90;;;;;;21221271;28;19964;-83
2023/10/20 02:44:27;;;;;;;;;;;13.20;99.90;;;;;;21190261;27;19922;-82
2023/10/20 02:54:27;;;;;;;;;;;13.30;99.90;;;;;;21191240;28;20286;-82
2023/10/20 03:04:29;;;;;;;;;;;13.40;99.90;;;;;;21190682;28;19960;-84
2023/10/20 03:14:30;;;;;;;;;;;13.50;99.90;;;;;;21190961;27;19939;-83
2023/10/20 03:24:32;;;;;;;;;;;13.50;99.90;;;;;;21193865;27;19951;-83
2023/10/20 03:34:33;;;;;;;;;;;13.60;99.90;;;;;;21192595;27;20349;-82
2023/10/20 03:44:34;;;;;;;;;;;13.60;99.90;;;;;;21195287;27;19916;-84
2023/10/20 03:54:34;;;;;;;;;;;13.60;99.90;;;;;;21203691;27;19911;-80
2023/10/20 04:04:35;;;;;;;;;;;13.60;99.90;;;;;;21189534;27;19966;-82
2023/10/20 04:14:36;;;;;;;;;;;13.70;99.90;;;;;;21201261;27;20021;-82
2023/10/20 04:24:37;;;;;;;;;;;13.60;99.90;;;;;;21208111;27;20000;-82
2023/10/20 05:15:26;;;;;;;;;;;13.60;99.90;;;;;;21195337;27;19955;-80
2023/10/20 05:25:28;;;;;;;;;;;13.70;99.90;;;;;;21221042;27;19916;-81
2023/10/20 05:35:29;;;;;;;;;;;13.60;99.90;;;;;;21209408;27;19939;-82
2023/10/20 05:45:32;;;;;;;;;;;13.60;99.90;;;;;;21194988;27;19955;-82
2023/10/20 05:55:33;;;;;;;;;;;13.60;99.90;;;;;;21230725;27;19912;-82
2023/10/20 06:05:34;;;;;;;;;;;13.40;99.90;;;;;;21188774;27;20365;-81
2023/10/20 06:15:35;;;;;;;;;;;13.50;99.90;;;;;;21202442;27;19911;-81
2023/10/20 06:25:36;;;;;;;;;;;13.10;99.90;;;;;;21178410;27;19968;-82
2023/10/20 06:35:48;;;;;;;;;;;12.90;99.90;;;;;;21226615;27;19916;-82
2023/10/20 06:45:59;;;;;;;;;;;13.10;99.90;;;;;;21207179;27;20007;-81
2023/10/20 06:56:01;;;;;;;;;;;13.20;99.90;;;;;;21225745;27;19918;-82
2023/10/20 07:06:07;;;;;;;;;;;13.40;99.90;;;;;;21226129;27;20302;-81
2023/10/20 07:16:07;;;;;;;;;;;13.60;99.90;;;;;;21240230;27;19930;-81
2023/10/20 07:26:08;;;;;;;;;;;13.70;99.90;;;;;;21221552;27;20000;-80
2023/10/20 07:36:10;;;;;;;;;;;13.70;99.90;;;;;;21214898;27;19959;-81
2023/10/20 07:46:15;;;;;;;;;;;13.90;99.90;;;;;;21239489;27;20121;-79
2023/10/20 07:56:15;;;;;;;;;;;14.00;99.90;;;;;;21229709;27;20362;-80
2023/10/20 08:06:16;;;;;;;;;;;14.00;99.90;;;;;;21230967;27;19938;-81
2023/10/20 08:16:18;;;;;;;;;;;13.90;99.90;;;;;;21232850;27;19928;-80
2023/10/20 08:26:21;;;;;;;;;;;13.80;99.90;;;;;;21225041;27;20381;-80
2023/10/20 08:36:22;;;;;;;;;;;13.80;99.90;;;;;;21244294;27;19915;-82
2023/10/20 08:46:24;;;;;;;;;;;13.80;99.90;;;;;;21247317;27;19944;-81
2023/10/20 08:56:25;;;;;;;;;;;13.90;99.90;;;;;;21251614;27;19919;-81
2023/10/20 09:06:26;;;;;;;;;;;14.00;99.90;;;;;;21232647;27;19951;-81
2023/10/20 09:16:26;;;;;;;;;;;14.30;99.90;;;;;;21233491;27;19922;-83
2023/10/20 09:26:28;;;;;;;;;;;14.40;99.90;;;;;;21224439;27;20255;-80
2023/10/20 09:36:29;;;;;;;;;;;14.30;99.90;;;;;;21231544;27;19919;-80
2023/10/20 09:46:38;;;;;;;;;;;14.30;99.90;;;;;;21227245;27;20499;-80
2023/10/20 09:56:40;;;;;;;;;;;14.40;99.90;;;;;;21244631;27;19911;-78
2023/10/20 10:06:42;;;;;;;;;;;14.40;99.90;;;;;;21247357;27;19968;-81
2023/10/20 10:16:50;;;;;;;;;;;14.40;99.90;;;;;;21248998;27;19918;-79
2023/10/20 10:26:57;;;;;;;;;;;14.30;99.90;;;;;;21286411;27;19923;-79
2023/10/20 10:36:58;;;;;;;;;;;14.40;99.90;;;;;;21243617;27;19912;-78
2023/10/20 10:46:59;;;;;;;;;;;14.50;99.90;;;;;;21290737;27;19979;-80
2023/10/20 10:57:01;;;;;;;;;;;14.50;99.90;;;;;;21294434;27;19911;-81
2023/10/20 11:07:01;;;;;;;;;;;14.50;99.90;;;;;;21270063;27;19919;-79
2023/10/20 11:17:03;;;;;;;;;;;14.50;99.90;;;;;;21244262;27;20373;-78
2023/10/20 11:27:11;;;;;;;;;;;14.40;99.90;;;;;;21258136;27;20041;-80
2023/10/20 11:37:13;;;;;;;;;;;14.30;99.90;;;;;;21258657;27;20322;-79
2023/10/20 11:47:14;;;;;;;;;;;14.30;99.90;;;;;;21254823;27;19915;-81
2023/10/20 11:57:15;;;;;;;;;;;14.30;99.90;;;;;;21268427;27;19911;-81
2023/10/20 12:07:16;;;;;;;;;;;14.20;99.90;;;;;;21280233;27;19923;-80
2023/10/20 12:17:17;;;;;;;;;;;14.20;99.90;;;;;;21274414;27;19912;-80
2023/10/20 12:27:19;;;;;;;;;;;14.10;99.90;;;;;;21258262;27;19927;-81
2023/10/20 12:37:20;;;;;;;;;;;14.20;99.90;;;;;;21270027;27;19912;-79
2023/10/20 12:47:22;;;;;;;;;;;14.20;99.90;;;;;;21247656;27;19916;-81
2023/10/20 12:57:23;;;;;;;;;;;14.20;99.90;;;;;;21269402;27;19912;-81
2023/10/20 13:07:24;;;;;;;;;;;14.10;99.90;;;;;;21274118;27;19923;-79
2023/10/20 13:17:26;;;;;;;;;;;14.10;99.90;;;;;;21272960;27;20374;-79
2023/10/20 13:27:27;;;;;;;;;;;14.10;99.90;;;;;;21265195;27;19922;-80
2023/10/20 13:37:28;;;;;;;;;;;13.90;99.90;;;;;;21244059;27;20378;-80
2023/10/20 13:47:29;;;;;;;;;;;13.80;99.90;;;;;;21233149;27;19915;-79
2023/10/20 13:57:30;;;;;;;;;;;13.70;99.90;;;;;;21236531;27;19913;-80
2023/10/20 14:07:32;;;;;;;;;;;13.70;99.90;;;;;;21250720;27;21357;-80
2023/10/20 14:17:33;;;;;;;;;;;13.50;99.90;;;;;;21249116;27;19912;-79
2023/10/20 14:27:34;;;;;;;;;;;13.50;99.90;;;;;;21221140;27;20465;-80
2023/10/20 14:37:34;;;;;;;;;;;13.50;99.90;;;;;;21244263;27;19978;-80
2023/10/20 14:47:35;;;;;;;;;;;13.50;99.90;;;;;;21252680;27;19915;-81
2023/10/20 14:57:36;;;;;;;;;;;13.60;99.90;;;;;;21217114;27;19912;-80
2023/10/20 15:07:38;;;;;;;;;;;13.60;99.90;;;;;;21220143;27;19988;-80
2023/10/20 15:17:39;;;;;;;;;;;13.70;99.90;;;;;;21235502;27;19915;-79
2023/10/20 15:27:39;;;;;;;;;;;13.50;99.90;;;;;;21248950;27;19922;-79
2023/10/20 15:37:40;;;;;;;;;;;13.40;99.90;;;;;;21249238;27;19964;-79
2023/10/20 15:47:43;;;;;;;;;;;13.30;99.90;;;;;;21230891;27;19986;-81
2023/10/20 15:57:44;;;;;;;;;;;13.40;99.90;;;;;;21258572;27;19912;-80
2023/10/20 16:07:44;;;;;;;;;;;13.40;99.90;;;;;;21242435;27;19998;-80
2023/10/20 16:17:45;;;;;;;;;;;13.40;99.90;;;;;;21234108;27;19911;-79
2023/10/20 16:27:46;;;;;;;;;;;13.40;99.90;;;;;;21244318;27;20285;-81
2023/10/20 16:37:46;;;;;;;;;;;13.20;99.90;;;;;;21229023;27;20400;-79
2023/10/20 16:47:47;;;;;;;;;;;13.00;99.90;;;;;;21242308;27;20521;-80
2023/10/20 16:57:47;;;;;;;;;;;12.80;99.90;;;;;;21242367;27;19911;-80
2023/10/20 17:07:48;;;;;;;;;;;12.70;99.90;;;;;;21241095;27;19998;-79
2023/10/20 17:17:49;;;;;;;;;;;12.50;99.90;;;;;;21247680;27;19911;-79
2023/10/20 17:27:50;;;;;;;;;;;12.40;99.90;;;;;;21250952;27;19936;-79
2023/10/20 17:37:52;;;;;;;;;;;12.40;99.90;;;;;;21260494;27;20022;-79
2023/10/20 17:47:52;;;;;;;;;;;12.30;99.90;;;;;;21255638;27;19924;-78
2023/10/20 17:57:53;;;;;;;;;;;12.20;99.90;;;;;;21245403;27;19944;-79
2023/10/20 18:07:54;;;;;;;;;;;12.20;99.90;;;;;;21242773;27;19937;-79
2023/10/20 18:17:54;;;;;;;;;;;12.10;99.90;;;;;;21243320;27;19911;-80
2023/10/20 18:27:55;;;;;;;;;;;12.10;99.90;;;;;;21243227;28;19919;-79
2023/10/20 18:37:56;;;;;;;;;;;12.10;99.90;;;;;;21246541;27;19947;-79
2023/10/20 18:47:56;;;;;;;;;;;12.10;99.90;;;;;;21249255;27;20410;-81
2023/10/20 18:57:57;;;;;;;;;;;12.10;99.90;;;;;;21287900;27;19912;-80
2023/10/20 19:07:58;;;;;;;;;;;12.10;99.90;;;;;;21289768;27;19919;-79
2023/10/20 19:17:59;;;;;;;;;;;12.10;99.90;;;;;;21277644;27;19971;-78
2023/10/20 19:27:59;;;;;;;;;;;12.00;99.90;;;;;;21283091;27;19915;-79
2023/10/20 19:38:00;;;;;;;;;;;12.10;99.90;;;;;;21252289;27;19912;-79
2023/10/20 19:48:00;;;;;;;;;;;12.10;99.90;;;;;;21243879;27;20074;-79
2023/10/20 19:58:01;;;;;;;;;;;12.10;99.90;;;;;;21264981;27;20357;-79
2023/10/20 20:08:02;;;;;;;;;;;12.10;99.90;;;;;;21266217;27;19921;-79
2023/10/20 20:18:03;;;;;;;;;;;11.80;99.90;;;;;;21264911;27;19996;-80
2023/10/20 20:28:03;;;;;;;;;;;11.80;99.90;;;;;;21258536;27;19919;-80
2023/10/20 20:38:05;;;;;;;;;;;11.60;99.90;;;;;;21260808;27;19919;-79
2023/10/20 20:48:06;;;;;;;;;;;11.50;99.90;;;;;;21272532;27;20014;-79
2023/10/20 20:58:07;;;;;;;;;;;11.00;99.90;;;;;;21285783;27;19921;-78
2023/10/20 21:08:07;;;;;;;;;;;11.00;99.90;;;;;;21288010;27;19922;-79
2023/10/20 21:18:08;;;;;;;;;;;11.10;99.90;;;;;;21284814;27;19919;-79
2023/10/20 21:28:09;;;;;;;;;;;11.30;99.90;;;;;;21275571;27;19958;-79
2023/10/20 21:38:09;;;;;;;;;;;11.40;99.90;;;;;;21267337;27;19918;-80
2023/10/20 21:48:10;;;;;;;;;;;11.20;99.90;;;;;;21261987;27;19916;-79
2023/10/20 21:58:11;;;;;;;;;;;11.00;99.90;;;;;;21271500;27;19951;-79
2023/10/20 22:08:11;;;;;;;;;;;11.00;99.90;;;;;;21242978;27;19916;-78
2023/10/20 22:18:12;;;;;;;;;;;11.00;99.90;;;;;;21244214;27;19918;-79
2023/10/20 22:28:12;;;;;;;;;;;11.20;99.90;;;;;;21241209;27;19961;-79
2023/10/20 22:38:13;;;;;;;;;;;11.00;99.90;;;;;;21146848;28;19912;-77
2023/10/20 22:48:14;;;;;;;;;;;10.90;99.90;;;;;;21143400;28;19915;-77
2023/10/20 22:58:14;;;;;;;;;;;10.80;99.90;;;;;;21157863;28;19912;-78
2023/10/20 23:08:15;;;;;;;;;;;11.20;99.90;;;;;;21160543;27;19915;-78
2023/10/20 23:18:15;;;;;;;;;;;11.10;99.90;;;;;;21149166;28;19919;-79
2023/10/20 23:28:16;;;;;;;;;;;11.40;99.90;;;;;;21155574;27;19922;-78
2023/10/20 23:38:17;;;;;;;;;;;12.30;99.90;;;;;;21166429;27;19965;-77
2023/10/20 23:48:18;;;;;;;;;;;12.70;99.90;;;;;;21172905;27;19942;-77
2023/10/20 23:58:18;;;;;;;;;;;12.80;99.90;;;;;;21171095;27;19912;-78
